Time;durP1;ratioP1;P1;durP2;ratioP2;P2;SDS_P1;SDS_P2;PMS_P1;PMS_P2;Temp;Humidity;BMP_temperature;BMP_pressure;BME280_temperature;BME280_humidity;BME280_pressure;Samples;Min_cycle;Max_cycle;Signal;HPM_P1;HPM_P2
2024/03/24 00:02:13;;;;;;;1.02;0.50;;;;;;;10.37;69.16;98671.63;6248743;28;20544;-75
2024/03/24 00:05:16;;;;;;;0.50;0.35;;;;;;;10.31;68.92;98677.34;6248713;28;20045;-75
2024/03/24 00:08:17;;;;;;;0.38;0.35;;;;;;;10.23;69.49;98685.78;6250157;28;20050;-75
2024/03/24 00:11:21;;;;;;;0.35;0.30;;;;;;;10.23;69.78;98692.75;6248562;28;20049;-75
2024/03/24 00:14:21;;;;;;;2.47;0.30;;;;;;;9.86;71.82;98687.88;6249882;28;20049;-75
2024/03/24 00:17:23;;;;;;;6.00;0.40;;;;;;;9.68;74.33;98683.22;6249665;28;20049;-75
2024/03/24 00:20:24;;;;;;;0.20;0.20;;;;;;;9.69;76.09;98678.81;6248288;28;20080;-75
2024/03/24 00:23:24;;;;;;;0.25;0.25;;;;;;;9.57;76.89;98674.56;6248406;28;20569;-75
2024/03/24 00:26:26;;;;;;;0.38;0.20;;;;;;;9.61;78.74;98669.00;6249680;28;20096;-75
2024/03/24 00:29:29;;;;;;;1.02;0.50;;;;;;;9.27;80.14;98673.44;6248545;28;20056;-75
2024/03/24 00:32:30;;;;;;;1.40;0.40;;;;;;;9.35;83.14;98684.06;6249547;28;20132;-75
2024/03/24 00:35:31;;;;;;;0.95;0.43;;;;;;;9.27;83.55;98697.69;6248061;28;20056;-75
2024/03/24 00:38:32;;;;;;;0.20;0.20;;;;;;;9.25;84.17;98696.16;6249063;28;20498;-75
2024/03/24 00:41:34;;;;;;;0.68;0.60;;;;;;;9.17;84.31;98722.75;6248949;28;20510;-75
2024/03/24 00:44:35;;;;;;;1.00;0.30;;;;;;;9.17;86.05;98725.34;6247747;28;20057;-75
2024/03/24 00:47:36;;;;;;;1.42;0.45;;;;;;;9.37;86.88;98738.59;6247651;28;20041;-75
2024/03/24 00:50:37;;;;;;;0.50;0.50;;;;;;;9.21;87.35;98751.97;6247685;28;20107;-75
2024/03/24 00:53:38;;;;;;;0.82;0.82;;;;;;;9.16;89.19;98731.53;6247448;28;20050;-75
2024/03/24 00:56:42;;;;;;;1.03;0.60;;;;;;;9.23;90.56;98732.69;6247498;28;20453;-75
2024/03/24 00:59:43;;;;;;;5.30;0.52;;;;;;;8.85;94.65;98719.97;6247791;28;20103;-76
2024/03/24 01:02:48;;;;;;;0.47;0.47;;;;;;;9.05;96.46;98692.47;6247408;28;20053;-75
2024/03/24 01:05:49;;;;;;;0.95;0.60;;;;;;;8.87;99.42;98742.34;6248596;28;20053;-75
2024/03/24 01:08:50;;;;;;;0.70;0.47;;;;;;;8.83;100.00;98755.69;6248567;28;20045;-75
2024/03/24 01:11:51;;;;;;;1.00;0.60;;;;;;;8.60;100.00;98763.41;6247021;28;20054;-75
2024/03/24 01:14:52;;;;;;;0.47;0.38;;;;;;;8.63;100.00;98773.59;6248971;28;20050;-76
2024/03/24 01:17:53;;;;;;;1.60;0.60;;;;;;;8.53;100.00;98741.41;6248170;28;20515;-75
2024/03/24 01:20:54;;;;;;;1.05;0.60;;;;;;;8.59;100.00;98747.94;6248347;28;20099;-75
2024/03/24 01:23:56;;;;;;;2.95;0.52;;;;;;;8.51;100.00;98784.06;6248184;28;20068;-75
2024/03/24 01:26:57;;;;;;;0.52;0.47;;;;;;;8.52;100.00;98781.34;6248388;28;20045;-76
2024/03/24 01:29:58;;;;;;;1.00;0.47;;;;;;;8.74;100.00;98777.19;6246749;28;20056;-75
2024/03/24 01:32:59;;;;;;;0.93;0.43;;;;;;;8.66;100.00;98788.97;6247981;28;20068;-75
2024/03/24 01:36:00;;;;;;;0.57;0.38;;;;;;;8.49;100.00;98796.34;6246857;28;20422;-75
2024/03/24 01:39:02;;;;;;;0.30;0.30;;;;;;;8.46;100.00;98799.97;6246506;28;20042;-75
2024/03/24 01:42:03;;;;;;;1.42;0.40;;;;;;;8.58;100.00;98811.25;6246659;28;20049;-75
2024/03/24 01:45:05;;;;;;;0.52;0.52;;;;;;;8.75;100.00;98795.28;6246304;28;20134;-75
2024/03/24 01:48:06;;;;;;;1.43;0.77;;;;;;;8.69;100.00;98803.53;6246507;28;20119;-75
2024/03/24 01:51:11;;;;;;;1.95;0.63;;;;;;;8.59;100.00;98815.53;6246279;28;20061;-75
2024/03/24 01:54:15;;;;;;;2.40;0.40;;;;;;;8.61;100.00;98808.47;6246079;28;20049;-76
2024/03/24 01:57:16;;;;;;;0.65;0.55;;;;;;;8.60;100.00;98789.41;6246136;28;20041;-75
2024/03/24 02:00:17;;;;;;;0.57;0.57;;;;;;;8.57;100.00;98768.84;6246508;28;20053;-75
2024/03/24 02:03:21;;;;;;;3.72;0.63;;;;;;;8.39;100.00;98755.38;6247222;28;20049;-75
2024/03/24 02:06:22;;;;;;;0.52;0.43;;;;;;;8.41;100.00;98745.72;6247316;28;20053;-75
2024/03/24 02:09:25;;;;;;;0.82;0.60;;;;;;;8.39;100.00;98760.56;6247154;28;20045;-75
2024/03/24 02:12:26;;;;;;;0.60;0.40;;;;;;;8.28;100.00;98768.34;6246799;28;20050;-75
2024/03/24 02:15:27;;;;;;;0.50;0.50;;;;;;;8.24;100.00;98772.91;6245580;28;20080;-75
2024/03/24 02:18:28;;;;;;;0.60;0.40;;;;;;;8.08;100.00;98777.53;6246912;28;20050;-75
2024/03/24 02:21:29;;;;;;;0.65;0.50;;;;;;;7.92;100.00;98802.94;6245860;28;20107;-75
2024/03/24 02:24:30;;;;;;;0.63;0.43;;;;;;;7.77;100.00;98823.03;6246652;28;20099;-75
2024/03/24 02:27:32;;;;;;;0.45;0.30;;;;;;;7.76;100.00;98813.56;6245851;28;20494;-75
2024/03/24 02:30:33;;;;;;;0.20;0.20;;;;;;;7.78;100.00;98804.75;6245467;28;20134;-75
2024/03/24 02:33:34;;;;;;;5.72;0.47;;;;;;;7.92;100.00;98829.72;6245622;28;20055;-75
2024/03/24 02:36:34;;;;;;;0.40;0.30;;;;;;;7.92;100.00;98836.72;6246558;28;20250;-75
2024/03/24 02:39:36;;;;;;;0.68;0.30;;;;;;;7.85;99.78;98855.31;6245234;28;20453;-75
2024/03/24 02:42:37;;;;;;;0.10;0.10;;;;;;;7.64;99.60;98886.16;6246493;28;20050;-75
2024/03/24 02:45:38;;;;;;;0.40;0.20;;;;;;;7.70;98.71;98895.31;6245145;28;20049;-75
2024/03/24 02:48:41;;;;;;;0.20;0.20;;;;;;;7.49;97.34;98918.31;6246407;28;20133;-75
2024/03/24 02:51:43;;;;;;;0.28;0.20;;;;;;;7.38;97.57;98954.56;6246570;28;20061;-75
2024/03/24 02:54:44;;;;;;;0.20;0.20;;;;;;;7.38;97.57;98950.19;6246082;28;20093;-75
2024/03/24 02:57:47;;;;;;;0.10;0.10;;;;;;;7.37;97.13;98958.91;6246119;28;20049;-75
2024/03/24 03:00:48;;;;;;;1.23;0.25;;;;;;;7.10;96.69;98971.06;6246468;28;20054;-75
2024/03/24 03:03:49;;;;;;;0.60;0.60;;;;;;;7.32;96.01;98973.13;6244948;28;20111;-75
2024/03/24 03:06:53;;;;;;;0.73;0.40;;;;;;;7.13;96.74;98974.31;6245078;28;20045;-75
2024/03/24 03:09:56;;;;;;;1.65;0.95;;;;;;;7.32;95.57;98960.16;6245973;28;20514;-75
2024/03/24 03:12:58;;;;;;;0.52;0.30;;;;;;;7.38;96.10;98954.56;6244691;28;20049;-75
2024/03/24 03:15:59;;;;;;;0.30;0.30;;;;;;;7.07;96.87;98965.13;6245152;28;20376;-75
2024/03/24 03:19:02;;;;;;;0.30;0.30;;;;;;;7.03;97.80;98965.44;6244664;28;20046;-75
2024/03/24 03:22:03;;;;;;;0.10;0.10;;;;;;;7.47;95.68;98962.56;6244695;28;20166;-75
2024/03/24 03:25:06;;;;;;;0.85;0.30;;;;;;;7.25;96.10;98963.13;6245874;28;20045;-76
2024/03/24 03:28:07;;;;;;;0.10;0.10;;;;;;;7.28;96.63;98949.13;6244684;28;20050;-75
2024/03/24 03:31:08;;;;;;;0.10;0.10;;;;;;;7.39;96.01;98944.09;6244622;28;20506;-75
2024/03/24 03:34:09;;;;;;;0.38;0.20;;;;;;;7.19;97.36;98939.34;6244772;28;20095;-76
2024/03/24 03:37:10;;;;;;;0.45;0.30;;;;;;;7.18;97.39;98954.06;6244637;28;20490;-75
2024/03/24 03:40:14;;;;;;;0.20;0.20;;;;;;;7.32;96.88;98965.34;6245978;28;20053;-75
2024/03/24 03:43:21;;;;;;;0.88;0.38;;;;;;;7.23;96.48;98961.56;6245752;28;20050;-75
2024/03/24 03:46:22;;;;;;;0.10;0.10;;;;;;;7.22;96.32;98980.66;6245494;28;20081;-75
2024/03/24 03:49:22;;;;;;;0.52;0.28;;;;;;;7.37;97.16;98984.88;6244474;28;20057;-75
2024/03/24 03:52:29;;;;;;;0.25;0.20;;;;;;;7.41;96.51;98985.47;6244257;28;20057;-75
2024/03/24 03:55:33;;;;;;;2.72;0.22;;;;;;;7.46;96.54;98979.06;6245831;28;20129;-75
2024/03/24 03:58:34;;;;;;;0.28;0.20;;;;;;;7.45;96.83;98977.41;6245485;28;20413;-75
2024/03/24 04:01:37;;;;;;;0.20;0.20;;;;;;;7.53;97.10;98982.09;6245711;28;20203;-75
2024/03/24 04:04:41;;;;;;;0.50;0.30;;;;;;;7.50;97.31;98978.88;6246582;28;20059;-75
2024/03/24 04:07:42;;;;;;;0.65;0.25;;;;;;;7.71;96.57;98981.81;6250166;28;20045;-75
2024/03/24 04:10:42;;;;;;;0.20;0.20;;;;;;;7.76;95.96;98985.78;6249932;28;20056;-75
2024/03/24 04:13:43;;;;;;;0.68;0.30;;;;;;;7.82;95.17;98984.53;6248733;28;20053;-75
2024/03/24 04:16:44;;;;;;;0.10;0.10;;;;;;;7.66;96.52;98976.94;6249665;28;20088;-75
2024/03/24 04:19:46;;;;;;;0.20;0.20;;;;;;;7.67;97.19;98983.78;6249790;28;20053;-76
2024/03/24 04:22:47;;;;;;;0.28;0.28;;;;;;;7.52;98.33;98993.41;6249679;28;20056;-75
2024/03/24 04:25:53;;;;;;;0.43;0.22;;;;;;;7.39;98.73;98993.38;6248325;28;20049;-75
2024/03/24 04:28:56;;;;;;;0.20;0.20;;;;;;;7.65;99.11;98989.06;6248397;28;20045;-75
2024/03/24 04:31:59;;;;;;;0.20;0.20;;;;;;;7.72;99.66;98992.13;6249241;28;20135;-75
2024/03/24 04:35:02;;;;;;;0.20;0.13;;;;;;;7.70;100.00;98988.78;6248336;28;20045;-75
2024/03/24 04:38:03;;;;;;;0.52;0.40;;;;;;;7.87;99.37;98974.69;6249141;28;20477;-75
2024/03/24 04:41:04;;;;;;;1.92;1.33;;;;;;;7.85;98.44;98979.97;6249247;28;20049;-75
2024/03/24 04:44:06;;;;;;;0.47;0.40;;;;;;;7.76;98.76;98974.56;6249023;28;20238;-75
2024/03/24 04:47:07;;;;;;;0.20;0.20;;;;;;;7.66;99.12;98957.00;6249109;28;20053;-75
2024/03/24 04:50:10;;;;;;;0.68;0.55;;;;;;;7.59;98.96;98960.91;6249078;28;20473;-75
2024/03/24 04:53:11;;;;;;;0.95;0.40;;;;;;;7.46;98.67;98947.91;6247587;28;20092;-75
2024/03/24 04:56:15;;;;;;;0.40;0.32;;;;;;;7.39;100.00;98951.88;6264525;28;20057;-75
2024/03/24 04:59:16;;;;;;;0.40;0.40;;;;;;;7.38;100.00;98946.78;6247457;28;20479;-75
2024/03/24 05:02:17;;;;;;;0.75;0.40;;;;;;;7.46;100.00;98947.09;6248588;28;20061;-75
2024/03/24 05:05:17;;;;;;;0.80;0.40;;;;;;;7.53;100.00;98955.31;6247457;28;20559;-75
2024/03/24 05:08:19;;;;;;;2.50;0.80;;;;;;;7.62;100.00;98949.53;6248615;28;20413;-75
2024/03/24 05:11:19;;;;;;;48.33;8.00;;;;;;;7.65;98.64;98954.50;6248452;28;20065;-75
2024/03/24 05:14:20;;;;;;;6.45;1.35;;;;;;;7.53;99.54;98961.31;6247093;28;20051;-75
2024/03/24 05:17:24;;;;;;;1.90;0.70;;;;;;;7.55;99.58;98984.59;6246663;28;20398;-76
2024/03/24 05:20:25;;;;;;;1.10;0.80;;;;;;;7.70;99.17;98991.38;6247426;28;20056;-75
2024/03/24 05:23:25;;;;;;;1.00;0.52;;;;;;;7.80;98.45;98999.38;6247027;28;20053;-75
2024/03/24 05:26:26;;;;;;;0.45;0.30;;;;;;;7.95;97.01;98995.78;6247199;28;20548;-75
2024/03/24 05:29:27;;;;;;;0.38;0.38;;;;;;;7.99;95.60;99002.44;6247887;28;20049;-75
2024/03/24 05:32:28;;;;;;;0.30;0.30;;;;;;;8.10;94.78;99026.84;6246745;28;20490;-75
2024/03/24 05:35:29;;;;;;;0.20;0.20;;;;;;;8.15;95.19;99029.97;6247709;28;20537;-75
2024/03/24 05:38:33;;;;;;;0.55;0.40;;;;;;;8.19;94.34;99032.25;6246398;28;20049;-75
2024/03/24 05:41:34;;;;;;;0.40;0.40;;;;;;;8.18;94.49;99025.41;6263290;28;20083;-75
2024/03/24 05:44:35;;;;;;;0.22;0.20;;;;;;;8.31;94.75;99032.38;6246361;28;20057;-75
2024/03/24 05:47:36;;;;;;;0.70;0.28;;;;;;;8.32;93.95;99031.41;6247938;28;20060;-75
2024/03/24 05:50:37;;;;;;;0.38;0.30;;;;;;;8.43;93.01;99031.56;6247675;28;20053;-75
2024/03/24 05:53:38;;;;;;;0.90;0.55;;;;;;;8.46;91.36;99027.00;6246196;28;20513;-75
2024/03/24 05:56:39;;;;;;;2.42;0.77;;;;;;;8.54;90.58;99016.03;6262642;28;20049;-75
2024/03/24 05:59:39;;;;;;;1.48;0.68;;;;;;;8.58;90.53;98998.47;6247175;28;20060;-75
2024/03/24 06:02:43;;;;;;;1.17;0.70;;;;;;;8.64;89.54;98990.25;6246355;28;20049;-75
2024/03/24 06:05:46;;;;;;;1.00;0.65;;;;;;;8.62;88.89;98986.91;6245786;28;20409;-75
2024/03/24 06:08:47;;;;;;;5.18;0.60;;;;;;;8.66;88.64;99006.56;6247261;28;20046;-76
2024/03/24 06:11:48;;;;;;;0.75;0.60;;;;;;;8.76;89.12;99031.00;6245881;28;20540;-75
2024/03/24 06:14:49;;;;;;;2.17;0.90;;;;;;;8.94;88.13;99028.88;6247121;28;20061;-75
2024/03/24 06:17:50;;;;;;;1.60;1.13;;;;;;;8.95;87.21;99040.94;6246633;28;20445;-75
2024/03/24 06:20:53;;;;;;;0.95;0.55;;;;;;;9.01;87.43;99061.31;6245792;28;20056;-75
2024/03/24 06:23:54;;;;;;;9.70;4.18;;;;;;;8.85;88.28;99058.13;6246835;28;20050;-75
2024/03/24 06:26:55;;;;;;;1.45;1.10;;;;;;;8.84;88.48;99053.88;6244958;28;20111;-75
2024/03/24 06:29:56;;;;;;;1.80;1.10;;;;;;;8.91;89.20;99055.09;6245387;28;20497;-75
2024/03/24 06:32:57;;;;;;;0.43;0.32;;;;;;;8.93;87.66;99063.63;6245471;28;20421;-75
2024/03/24 06:35:58;;;;;;;0.80;0.43;;;;;;;8.96;87.98;99049.59;6245472;28;20049;-75
2024/03/24 06:38:59;;;;;;;0.55;0.20;;;;;;;9.03;88.12;99043.84;6245326;28;20449;-75
2024/03/24 06:42:04;;;;;;;1.52;0.90;;;;;;;8.96;86.18;99042.63;6261918;28;20133;-75
2024/03/24 06:45:08;;;;;;;0.70;0.35;;;;;;;9.14;86.11;99043.09;6245056;28;20056;-75
2024/03/24 06:48:09;;;;;;;0.95;0.40;;;;;;;9.24;86.24;99030.22;6246322;28;20441;-75
2024/03/24 06:51:09;;;;;;;0.40;0.40;;;;;;;9.31;84.85;99025.41;6246565;28;20129;-75
2024/03/24 06:54:10;;;;;;;2.42;0.30;;;;;;;9.33;85.13;99034.78;6246187;28;20065;-75
2024/03/24 06:57:11;;;;;;;0.63;0.40;;;;;;;9.37;84.86;99043.19;6246098;28;20057;-75
2024/03/24 07:00:19;;;;;;;2.00;0.60;;;;;;;9.26;85.92;99067.41;6246157;28;20057;-75
2024/03/24 07:03:25;;;;;;;0.47;0.47;;;;;;;9.38;85.65;99071.72;6245022;28;20061;-75
2024/03/24 07:06:25;;;;;;;0.30;0.30;;;;;;;9.47;83.63;99081.50;6244770;28;20045;-75
2024/03/24 07:09:26;;;;;;;0.88;0.40;;;;;;;9.20;84.87;99091.25;6244902;28;20568;-75
2024/03/24 07:12:27;;;;;;;2.33;0.68;;;;;;;9.24;85.71;99103.94;6246017;28;20049;-75
2024/03/24 07:15:28;;;;;;;0.70;0.70;;;;;;;9.18;85.40;99111.34;6244895;28;20067;-75
2024/03/24 07:18:31;;;;;;;1.45;0.70;;;;;;;9.26;87.30;99124.66;6245942;28;20057;-75
2024/03/24 07:21:32;;;;;;;2.22;0.80;;;;;;;9.00;88.11;99129.09;6244956;28;20084;-75
2024/03/24 07:24:33;;;;;;;2.42;1.55;;;;;;;8.96;88.59;99151.06;6245894;28;20049;-75
2024/03/24 07:27:34;;;;;;;2.45;0.95;;;;;;;8.80;88.04;99162.50;6244625;28;20049;-76
2024/03/24 07:30:35;;;;;;;1.92;1.60;;;;;;;8.74;89.70;99162.09;6245836;28;20636;-75
2024/03/24 07:33:35;;;;;;;5.25;2.00;;;;;;;8.80;89.37;99153.88;6244606;28;20053;-75
2024/03/24 07:36:36;;;;;;;0.93;0.70;;;;;;;8.83;89.33;99145.84;6244631;28;20087;-75
2024/03/24 07:39:37;;;;;;;2.53;0.85;;;;;;;8.99;89.09;99150.84;6246717;28;20046;-75
2024/03/24 07:42:39;;;;;;;1.10;0.88;;;;;;;8.98;90.38;99151.78;6249767;28;20064;-75
2024/03/24 07:45:40;;;;;;;1.15;0.80;;;;;;;9.03;88.65;99150.53;6250524;28;20056;-75
2024/03/24 07:48:41;;;;;;;2.42;1.60;;;;;;;9.01;88.05;99141.97;6249509;28;20049;-75
2024/03/24 07:51:42;;;;;;;0.50;0.50;;;;;;;9.01;88.37;99133.34;6250344;28;20411;-75
2024/03/24 07:54:43;;;;;;;0.65;0.63;;;;;;;9.32;87.07;99131.22;6250539;28;20485;-75
2024/03/24 07:57:44;;;;;;;0.65;0.63;;;;;;;9.47;87.37;99128.38;6250002;28;20124;-75
2024/03/24 08:00:44;;;;;;;0.30;0.30;;;;;;;9.73;86.67;99117.84;6248860;28;20053;-75
2024/03/24 08:03:45;;;;;;;0.40;0.40;;;;;;;10.10;84.15;99109.94;6250419;28;20049;-67
2024/03/24 08:06:46;;;;;;;0.38;0.38;;;;;;;10.17;82.82;99100.72;6248559;28;20118;-75
2024/03/24 08:09:47;;;;;;;0.60;0.57;;;;;;;10.41;79.99;99092.84;6249919;28;20525;-76
2024/03/24 08:12:48;;;;;;;0.50;0.50;;;;;;;10.80;78.78;99100.38;6248600;28;20053;-75
2024/03/24 08:15:49;;;;;;;1.48;0.85;;;;;;;11.24;79.25;99109.97;6248546;28;20521;-75
2024/03/24 08:18:50;;;;;;;0.95;0.30;;;;;;;11.26;76.74;99110.69;6248322;28;20076;-75
2024/03/24 08:21:52;;;;;;;1.13;0.73;;;;;;;11.14;75.34;99108.19;6248670;28;20505;-76
2024/03/24 08:24:53;;;;;;;0.37;0.37;;;;;;;11.03;74.06;99104.63;6248437;28;20045;-75
2024/03/24 08:27:54;;;;;;;0.65;0.63;;;;;;;11.04;73.48;99092.44;6249661;28;20267;-75
2024/03/24 08:30:54;;;;;;;2.15;0.88;;;;;;;11.32;72.25;99087.63;6248383;28;20050;-75
2024/03/24 08:33:55;;;;;;;0.95;0.63;;;;;;;11.35;71.35;99095.25;6248072;28;20060;-75
2024/03/24 08:36:57;;;;;;;0.43;0.25;;;;;;;11.05;71.50;99091.47;6248057;28;20132;-75
2024/03/24 08:39:58;;;;;;;0.57;0.50;;;;;;;10.99;73.00;99087.56;6248079;28;20107;-75
2024/03/24 08:42:59;;;;;;;7.03;2.53;;;;;;;11.20;73.40;99077.22;6249328;28;20046;-75
2024/03/24 08:46:00;;;;;;;0.90;0.88;;;;;;;11.24;73.57;99075.19;6248935;28;20584;-75
2024/03/24 08:49:00;;;;;;;2.72;1.80;;;;;;;11.28;70.70;99072.22;6248046;28;20045;-76
2024/03/24 08:52:02;;;;;;;2.42;1.70;;;;;;;11.60;70.76;99073.19;6248383;28;20050;-75
2024/03/24 08:55:03;;;;;;;3.70;2.30;;;;;;;11.82;70.00;99077.50;6264307;28;20303;-76
2024/03/24 08:58:04;;;;;;;0.50;0.50;;;;;;;11.99;70.87;99078.78;6247537;28;20042;-75
2024/03/24 09:01:06;;;;;;;3.00;0.88;;;;;;;11.77;68.66;99077.06;6248780;28;20060;-75
2024/03/24 09:04:07;;;;;;;1.55;0.95;;;;;;;11.93;67.97;99071.44;6248890;28;20046;-75
2024/03/24 09:07:08;;;;;;;1.27;0.93;;;;;;;11.32;69.54;99078.00;6248527;28;20050;-75
2024/03/24 09:10:11;;;;;;;5.72;1.10;;;;;;;11.63;69.10;99075.56;6248657;28;20056;-76
2024/03/24 09:13:12;;;;;;;3.05;1.00;;;;;;;12.34;67.65;99064.56;6247231;28;20049;-75
2024/03/24 09:16:13;;;;;;;1.75;1.13;;;;;;;12.29;65.86;99060.53;6248535;28;20132;-76
2024/03/24 09:19:17;;;;;;;4.45;0.90;;;;;;;12.13;67.02;99072.38;6247293;28;20052;-76
2024/03/24 09:22:18;;;;;;;1.40;1.00;;;;;;;12.12;66.78;99070.75;6248586;28;20053;-75
2024/03/24 09:25:19;;;;;;;2.40;1.30;;;;;;;12.53;66.26;99063.81;6248279;28;20045;-76
2024/03/24 09:28:40;;;;;;;2.40;1.00;;;;;;;12.66;64.77;99057.44;6247941;28;20056;-75
2024/03/24 09:31:52;;;;;;;1.83;1.00;;;;;;;12.92;60.25;99064.00;6248609;28;20056;-75
2024/03/24 09:34:53;;;;;;;2.60;1.50;;;;;;;13.23;61.47;99059.53;6247196;28;20053;-75
2024/03/24 09:37:54;;;;;;;1.02;0.85;;;;;;;13.03;59.28;99056.88;6247713;28;20041;-75
2024/03/24 09:40:58;;;;;;;1.23;0.70;;;;;;;12.46;59.80;99037.38;6246691;28;20103;-75
2024/03/24 09:43:59;;;;;;;2.20;0.90;;;;;;;12.95;59.08;99043.63;6246576;28;20528;-75
2024/03/24 09:47:00;;;;;;;3.03;1.60;;;;;;;12.78;59.85;99036.38;6247553;28;20053;-75
2024/03/24 09:50:01;;;;;;;0.93;0.70;;;;;;;12.92;58.30;99032.59;6247953;28;20049;-75
2024/03/24 09:53:03;;;;;;;1.57;0.97;;;;;;;12.87;58.44;99035.59;6247344;28;20139;-75
2024/03/24 09:56:07;;;;;;;2.17;0.90;;;;;;;13.33;58.04;99036.00;6246421;28;20107;-75
2024/03/24 09:59:08;;;;;;;1.10;0.68;;;;;;;13.13;56.45;99042.97;6245961;28;20077;-75
2024/03/24 10:02:12;;;;;;;2.30;1.23;;;;;;;12.78;56.48;99037.19;6246521;28;20058;-75
2024/03/24 10:05:15;;;;;;;3.53;1.55;;;;;;;12.90;56.79;99044.00;6247285;28;20053;-75
2024/03/24 10:08:15;;;;;;;;;;;;;;;13.24;55.42;99054.16;6246361;28;20053;-75
2024/03/24 10:11:34;;;;;;;1.60;0.75;;;;;;;12.92;57.38;99043.06;6246119;28;20384;-75
2024/03/24 10:14:35;;;;;;;1.73;0.85;;;;;;;13.46;56.05;99052.28;6246037;28;20050;-75
2024/03/24 10:17:36;;;;;;;1.20;1.10;;;;;;;14.10;54.58;99036.00;6246785;28;20052;-75
2024/03/24 10:20:40;;;;;;;2.28;1.15;;;;;;;14.25;52.59;99038.19;6245708;28;20417;-75
2024/03/24 10:23:43;;;;;;;3.50;1.00;;;;;;;13.85;52.68;99034.75;6247382;28;20050;-75
2024/03/24 10:26:44;;;;;;;1.90;1.17;;;;;;;13.76;52.33;99035.59;6246605;28;20398;-75
2024/03/24 10:29:45;;;;;;;2.60;1.45;;;;;;;13.66;52.08;99037.41;6245701;28;20137;-75
2024/03/24 10:32:47;;;;;;;4.75;0.95;;;;;;;13.46;53.09;99041.81;6245374;28;20049;-75
2024/03/24 10:35:48;;;;;;;1.48;0.82;;;;;;;13.72;52.67;99034.22;6245791;28;20049;-75
2024/03/24 10:38:51;;;;;;;2.42;1.27;;;;;;;13.93;52.59;99039.31;6246319;28;20098;-75
2024/03/24 10:41:54;;;;;;;0.98;0.82;;;;;;;14.52;49.74;99040.84;6246767;28;20049;-75
2024/03/24 10:45:00;;;;;;;2.50;1.20;;;;;;;14.49;47.60;99022.75;6246478;28;20057;-75
2024/03/24 10:48:08;;;;;;;3.05;1.15;;;;;;;15.06;48.48;99021.84;6246325;28;20441;-75
2024/03/24 10:51:11;;;;;;;2.05;1.40;;;;;;;15.31;46.19;99029.00;6245198;28;20486;-75
2024/03/24 10:54:11;;;;;;;;;;;;;;;15.47;44.92;99024.88;6246544;28;20532;-75
2024/03/24 10:57:14;;;;;;;1.25;0.75;;;;;;;14.03;43.52;99024.41;6244985;28;19925;-75
2024/03/24 11:00:15;;;;;;;5.82;2.72;;;;;;;14.80;45.01;99011.19;6245335;28;20081;-75
2024/03/24 11:03:20;;;;;;;3.28;1.30;;;;;;;15.28;44.81;99015.34;6246136;28;20180;-75
2024/03/24 11:06:21;;;;;;;3.55;1.25;;;;;;;15.57;44.11;99016.94;6244863;28;20053;-75
2024/03/24 11:09:22;;;;;;;2.55;1.10;;;;;;;15.74;40.87;99005.59;6246144;28;20124;-75
2024/03/24 11:12:24;;;;;;;4.75;1.83;;;;;;;14.81;41.39;99018.94;6244933;28;20085;-75
2024/03/24 11:15:25;;;;;;;1.48;0.90;;;;;;;14.52;42.19;99017.22;6249889;28;20490;-75
2024/03/24 11:18:28;;;;;;;3.42;1.40;;;;;;;14.94;42.57;99008.06;6249754;28;20052;-75
2024/03/24 11:21:37;;;;;;;3.63;1.27;;;;;;;15.74;43.44;99010.84;6251081;28;20144;-75
2024/03/24 11:24:38;;;;;;;1.23;0.85;;;;;;;15.73;41.92;98997.84;6250983;28;20053;-75
2024/03/24 11:27:42;;;;;;;2.72;1.10;;;;;;;16.13;41.01;98997.31;6249745;28;20052;-75
2024/03/24 11:30:43;;;;;;;3.85;1.40;;;;;;;16.11;41.43;98991.38;6249654;28;20413;-76
2024/03/24 11:33:45;;;;;;;1.33;0.80;;;;;;;15.89;41.26;98988.25;6250754;28;20460;-75
2024/03/24 11:36:49;;;;;;;2.42;1.42;;;;;;;15.58;41.63;98974.69;6250649;28;20266;-76
2024/03/24 11:39:50;;;;;;;1.38;1.27;;;;;;;15.50;43.17;98972.00;6249301;28;20515;-75
2024/03/24 11:42:56;;;;;;;2.05;1.13;;;;;;;16.20;43.74;98969.38;6250635;28;20205;-75
2024/03/24 11:46:03;;;;;;;1.48;1.27;;;;;;;16.28;43.50;98965.97;6250371;28;20056;-75
2024/03/24 11:49:04;;;;;;;4.25;1.55;;;;;;;15.70;43.17;98957.69;6250373;28;20049;-75
2024/03/24 11:52:07;;;;;;;4.00;1.40;;;;;;;16.09;43.27;98959.97;6250231;28;20417;-75
2024/03/24 11:55:09;;;;;;;2.45;1.00;;;;;;;15.76;40.47;98952.84;6250360;28;20059;-75
2024/03/24 11:58:09;;;;;;;5.67;1.20;;;;;;;15.75;41.41;98943.28;6248871;28;20483;-75
2024/03/24 12:01:11;;;;;;;2.60;1.10;;;;;;;16.10;39.93;98929.19;6249617;28;20057;-75
2024/03/24 12:04:12;;;;;;;;;;;;;;;16.41;37.87;98924.28;6250708;28;20053;-75
2024/03/24 12:07:13;;;;;;;1.63;0.80;;;;;;;15.88;37.33;98917.41;6265429;28;20345;-75
2024/03/24 12:10:15;;;;;;;3.47;1.20;;;;;;;15.99;38.47;98916.31;6248577;28;20053;-75
2024/03/24 12:13:16;;;;;;;8.35;1.77;;;;;;;15.45;39.93;98919.88;6265542;28;20443;-75
2024/03/24 12:16:17;;;;;;;2.80;1.40;;;;;;;15.60;38.70;98921.97;6249735;28;20584;-75
2024/03/24 12:19:20;;;;;;;2.33;1.20;;;;;;;15.62;40.79;98915.56;6249851;28;20156;-76
2024/03/24 12:22:23;;;;;;;1.65;1.13;;;;;;;16.23;39.59;98916.44;6249776;28;20049;-75
2024/03/24 12:25:24;;;;;;;2.83;1.20;;;;;;;16.00;40.51;98917.97;6248352;28;20111;-68
2024/03/24 12:28:24;;;;;;;1.48;1.02;;;;;;;15.60;40.36;98908.81;6248377;28;20056;-67
2024/03/24 12:31:25;;;;;;;9.10;2.53;;;;;;;15.48;40.39;98911.72;6248246;28;20357;-67
2024/03/24 12:34:26;;;;;;;3.05;1.38;;;;;;;14.96;39.85;98908.13;6249527;28;20050;-67
2024/03/24 12:37:28;;;;;;;3.45;1.40;;;;;;;14.74;41.88;98904.13;6249137;28;20390;-68
2024/03/24 12:40:29;;;;;;;3.22;1.50;;;;;;;14.53;42.79;98905.19;6248146;28;20045;-68
2024/03/24 12:43:30;;;;;;;1.35;1.02;;;;;;;14.87;43.30;98899.34;6264636;28;20092;-67
2024/03/24 12:46:34;;;;;;;2.38;1.48;;;;;;;15.48;42.80;98902.97;6248096;28;20062;-67
2024/03/24 12:49:36;;;;;;;2.17;1.10;;;;;;;15.26;40.84;98897.22;6248807;28;20041;-67
2024/03/24 12:52:37;;;;;;;3.60;1.40;;;;;;;14.80;40.70;98898.28;6248815;28;20417;-67
2024/03/24 12:55:41;;;;;;;2.38;0.98;;;;;;;14.35;39.86;98891.19;6247543;28;20277;-67
2024/03/24 12:58:45;;;;;;;1.40;1.20;;;;;;;14.20;40.17;98883.78;6247334;28;20050;-67
2024/03/24 13:01:48;;;;;;;4.25;1.92;;;;;;;13.90;40.18;98883.09;6247653;28;20057;-67
2024/03/24 13:04:49;;;;;;;3.70;1.50;;;;;;;14.25;40.15;98881.56;6248547;28;20056;-67
2024/03/24 13:07:53;;;;;;;1.63;1.30;;;;;;;15.48;38.41;98879.31;6247501;28;20409;-67
2024/03/24 13:10:56;;;;;;;2.95;1.25;;;;;;;16.02;39.13;98868.66;6248353;28;20056;-67
2024/03/24 13:13:57;;;;;;;3.25;1.20;;;;;;;16.04;36.29;98870.16;6263994;28;20144;-67
2024/03/24 13:17:19;;;;;;;4.78;1.95;;;;;;;15.68;37.72;98865.00;6247253;28;20136;-67
2024/03/24 13:20:20;;;;;;;3.65;1.65;;;;;;;15.05;39.23;98865.19;6247144;28;20049;-67
2024/03/24 13:23:23;;;;;;;4.55;1.52;;;;;;;14.81;39.65;98866.63;6247299;28;20045;-67
2024/03/24 13:26:28;;;;;;;2.35;1.20;;;;;;;15.41;38.67;98857.25;6248289;28;20053;-67
2024/03/24 13:29:31;;;;;;;1.65;1.10;;;;;;;16.21;38.02;98867.59;6246785;28;20136;-67
2024/03/24 13:32:32;;;;;;;5.10;1.40;;;;;;;16.16;36.86;98861.97;6248104;28;20049;-67
2024/03/24 13:35:33;;;;;;;4.45;1.30;;;;;;;15.58;37.91;98852.94;6246734;28;20045;-67
2024/03/24 13:38:46;;;;;;;0.85;0.60;;;;;;;14.74;38.55;98862.09;6246586;28;20045;-67
2024/03/24 13:41:56;;;;;;;2.72;0.80;;;;;;;14.36;38.94;98853.50;6246505;28;20480;-67
2024/03/24 13:45:30;;;;;;;4.43;1.25;;;;;;;15.06;37.77;98838.75;6247921;28;20057;-75
2024/03/24 13:48:31;;;;;;;1.65;0.90;;;;;;;15.56;37.75;98853.06;6247644;28;20054;-75
2024/03/24 13:51:36;;;;;;;1.20;0.80;;;;;;;15.65;37.38;98853.97;6246532;28;20057;-74
2024/03/24 13:54:40;;;;;;;1.42;1.00;;;;;;;15.30;36.67;98838.13;6246532;28;20107;-75
2024/03/24 13:57:41;;;;;;;5.47;0.63;;;;;;;14.40;37.48;98832.06;6264394;28;20052;-75
2024/03/24 14:00:44;;;;;;;1.10;0.63;;;;;;;14.23;38.84;98846.78;6246222;28;20053;-75
2024/03/24 14:03:49;;;;;;;2.42;0.75;;;;;;;14.45;38.43;98849.97;6262913;28;20050;-74
2024/03/24 14:06:50;;;;;;;1.20;0.90;;;;;;;13.93;37.72;98842.66;6246119;28;20211;-75
2024/03/24 14:09:52;;;;;;;1.50;0.77;;;;;;;14.05;38.05;98838.88;6247357;28;20486;-75
2024/03/24 14:13:15;;;;;;;1.20;0.60;;;;;;;14.91;37.85;98845.53;6246102;28;20046;-75
2024/03/24 14:16:29;;;;;;;1.23;0.70;;;;;;;15.39;38.60;98841.63;6246095;28;20087;-75
2024/03/24 14:19:40;;;;;;;1.52;0.80;;;;;;;15.48;38.08;98840.72;6247032;28;20111;-75
2024/03/24 14:22:53;;;;;;;1.05;0.80;;;;;;;15.04;36.77;98837.28;6245982;28;20364;-75